sensor_id;sensor_type;location;lat;lon;timestamp;P1;durP1;ratioP1;P2;durP2;ratioP2
19804;SDS011;10062;51.052;13.756;2023-11-19T00:00:39;12.10;;;7.40;;
19804;SDS011;10062;51.052;13.756;2023-11-19T00:03:10;18.30;;;8.00;;
19804;SDS011;10062;51.052;13.756;2023-11-19T00:05:43;13.37;;;7.60;;
19804;SDS011;10062;51.052;13.756;2023-11-19T00:08:15;11.93;;;7.53;;
19804;SDS011;10062;51.052;13.756;2023-11-19T00:10:46;14.10;;;7.83;;
19804;SDS011;10062;51.052;13.756;2023-11-19T00:13:19;14.60;;;7.97;;
19804;SDS011;10062;51.052;13.756;2023-11-19T00:15:51;14.77;;;7.30;;
19804;SDS011;10062;51.052;13.756;2023-11-19T00:18:23;12.77;;;7.80;;
19804;SDS011;10062;51.052;13.756;2023-11-19T00:20:55;14.70;;;8.40;;
19804;SDS011;10062;51.052;13.756;2023-11-19T00:23:27;15.93;;;9.00;;
19804;SDS011;10062;51.052;13.756;2023-11-19T00:25:59;13.60;;;7.53;;
19804;SDS011;10062;51.052;13.756;2023-11-19T00:28:32;13.17;;;8.00;;
19804;SDS011;10062;51.052;13.756;2023-11-19T00:31:05;16.20;;;9.00;;
19804;SDS011;10062;51.052;13.756;2023-11-19T00:33:37;14.90;;;7.87;;
19804;SDS011;10062;51.052;13.756;2023-11-19T00:36:09;13.10;;;7.87;;
19804;SDS011;10062;51.052;13.756;2023-11-19T00:38:41;11.57;;;6.03;;
19804;SDS011;10062;51.052;13.756;2023-11-19T00:41:13;16.33;;;7.90;;
19804;SDS011;10062;51.052;13.756;2023-11-19T00:43:48;13.60;;;8.20;;
19804;SDS011;10062;51.052;13.756;2023-11-19T00:46:20;11.63;;;6.53;;
19804;SDS011;10062;51.052;13.756;2023-11-19T00:48:51;11.40;;;6.87;;
19804;SDS011;10062;51.052;13.756;2023-11-19T00:51:23;14.87;;;7.93;;
19804;SDS011;10062;51.052;13.756;2023-11-19T00:53:55;12.53;;;7.57;;
19804;SDS011;10062;51.052;13.756;2023-11-19T00:56:28;12.33;;;8.20;;
19804;SDS011;10062;51.052;13.756;2023-11-19T00:59:01;13.53;;;8.23;;
19804;SDS011;10062;51.052;13.756;2023-11-19T01:01:32;15.30;;;7.83;;
19804;SDS011;10062;51.052;13.756;2023-11-19T01:04:04;12.10;;;7.13;;
19804;SDS011;10062;51.052;13.756;2023-11-19T01:06:37;9.30;;;4.73;;
19804;SDS011;10062;51.052;13.756;2023-11-19T01:09:08;10.67;;;5.30;;
19804;SDS011;10062;51.052;13.756;2023-11-19T01:11:40;11.83;;;6.40;;
19804;SDS011;10062;51.052;13.756;2023-11-19T01:14:13;13.17;;;7.47;;
19804;SDS011;10062;51.052;13.756;2023-11-19T01:16:46;12.37;;;7.40;;
19804;SDS011;10062;51.052;13.756;2023-11-19T01:19:18;11.93;;;7.40;;
19804;SDS011;10062;51.052;13.756;2023-11-19T01:21:49;6.73;;;4.03;;
19804;SDS011;10062;51.052;13.756;2023-11-19T01:24:21;14.23;;;7.90;;
19804;SDS011;10062;51.052;13.756;2023-11-19T01:26:53;10.77;;;6.63;;
19804;SDS011;10062;51.052;13.756;2023-11-19T01:29:26;13.73;;;7.30;;
19804;SDS011;10062;51.052;13.756;2023-11-19T01:31:58;12.23;;;6.53;;
19804;SDS011;10062;51.052;13.756;2023-11-19T01:34:30;10.73;;;6.20;;
19804;SDS011;10062;51.052;13.756;2023-11-19T01:37:01;10.73;;;5.97;;
19804;SDS011;10062;51.052;13.756;2023-11-19T01:39:33;9.90;;;6.53;;
19804;SDS011;10062;51.052;13.756;2023-11-19T01:42:05;10.67;;;5.60;;
19804;SDS011;10062;51.052;13.756;2023-11-19T01:44:38;13.70;;;5.50;;
19804;SDS011;10062;51.052;13.756;2023-11-19T01:47:10;10.27;;;5.73;;
19804;SDS011;10062;51.052;13.756;2023-11-19T01:49:42;10.03;;;5.57;;
19804;SDS011;10062;51.052;13.756;2023-11-19T01:52:14;9.47;;;5.33;;
19804;SDS011;10062;51.052;13.756;2023-11-19T01:54:45;9.93;;;5.27;;
19804;SDS011;10062;51.052;13.756;2023-11-19T01:57:18;10.60;;;5.30;;
19804;SDS011;10062;51.052;13.756;2023-11-19T01:59:53;9.00;;;5.03;;
19804;SDS011;10062;51.052;13.756;2023-11-19T02:02:25;10.00;;;4.53;;
19804;SDS011;10062;51.052;13.756;2023-11-19T02:04:57;9.17;;;4.87;;
19804;SDS011;10062;51.052;13.756;2023-11-19T02:07:30;6.43;;;4.00;;
19804;SDS011;10062;51.052;13.756;2023-11-19T02:10:02;8.57;;;4.80;;
19804;SDS011;10062;51.052;13.756;2023-11-19T02:12:35;8.33;;;3.90;;
19804;SDS011;10062;51.052;13.756;2023-11-19T02:15:09;7.97;;;4.20;;
19804;SDS011;10062;51.052;13.756;2023-11-19T02:17:41;8.57;;;4.50;;
19804;SDS011;10062;51.052;13.756;2023-11-19T02:20:13;8.43;;;4.23;;
19804;SDS011;10062;51.052;13.756;2023-11-19T02:22:45;6.13;;;3.80;;
19804;SDS011;10062;51.052;13.756;2023-11-19T02:25:19;6.87;;;4.00;;
19804;SDS011;10062;51.052;13.756;2023-11-19T02:28:00;10.73;;;4.67;;
19804;SDS011;10062;51.052;13.756;2023-11-19T02:30:34;6.83;;;3.40;;
19804;SDS011;10062;51.052;13.756;2023-11-19T02:33:06;6.50;;;2.87;;
19804;SDS011;10062;51.052;13.756;2023-11-19T02:35:38;4.63;;;2.80;;
19804;SDS011;10062;51.052;13.756;2023-11-19T02:38:11;5.33;;;3.07;;
19804;SDS011;10062;51.052;13.756;2023-11-19T02:40:44;4.07;;;2.37;;
19804;SDS011;10062;51.052;13.756;2023-11-19T02:43:17;5.27;;;1.77;;
19804;SDS011;10062;51.052;13.756;2023-11-19T02:45:49;6.07;;;2.90;;
19804;SDS011;10062;51.052;13.756;2023-11-19T02:48:21;6.43;;;3.23;;
19804;SDS011;10062;51.052;13.756;2023-11-19T02:50:53;3.97;;;2.37;;
19804;SDS011;10062;51.052;13.756;2023-11-19T02:53:24;5.90;;;2.53;;
19804;SDS011;10062;51.052;13.756;2023-11-19T02:55:59;3.17;;;2.13;;
19804;SDS011;10062;51.052;13.756;2023-11-19T02:58:42;5.33;;;2.70;;
19804;SDS011;10062;51.052;13.756;2023-11-19T03:01:21;4.73;;;2.30;;
19804;SDS011;10062;51.052;13.756;2023-11-19T03:03:59;5.70;;;2.63;;
19804;SDS011;10062;51.052;13.756;2023-11-19T03:06:32;3.83;;;1.80;;
19804;SDS011;10062;51.052;13.756;2023-11-19T03:09:04;4.60;;;2.63;;
19804;SDS011;10062;51.052;13.756;2023-11-19T03:11:36;5.50;;;3.00;;
19804;SDS011;10062;51.052;13.756;2023-11-19T03:14:09;5.30;;;3.13;;
19804;SDS011;10062;51.052;13.756;2023-11-19T03:16:44;4.87;;;2.53;;
19804;SDS011;10062;51.052;13.756;2023-11-19T03:19:16;4.50;;;2.77;;
19804;SDS011;10062;51.052;13.756;2023-11-19T03:21:48;3.80;;;2.20;;
19804;SDS011;10062;51.052;13.756;2023-11-19T03:24:20;4.63;;;2.30;;
19804;SDS011;10062;51.052;13.756;2023-11-19T03:26:52;4.60;;;2.10;;
19804;SDS011;10062;51.052;13.756;2023-11-19T03:29:25;3.47;;;1.97;;
19804;SDS011;10062;51.052;13.756;2023-11-19T03:31:58;3.80;;;2.07;;
19804;SDS011;10062;51.052;13.756;2023-11-19T03:34:30;4.70;;;2.60;;
19804;SDS011;10062;51.052;13.756;2023-11-19T03:37:02;5.47;;;2.97;;
19804;SDS011;10062;51.052;13.756;2023-11-19T03:39:34;3.50;;;1.47;;
19804;SDS011;10062;51.052;13.756;2023-11-19T03:42:06;4.20;;;2.13;;
19804;SDS011;10062;51.052;13.756;2023-11-19T03:44:39;4.70;;;2.20;;
19804;SDS011;10062;51.052;13.756;2023-11-19T03:47:10;2.40;;;1.37;;
19804;SDS011;10062;51.052;13.756;2023-11-19T03:49:42;4.03;;;2.40;;
19804;SDS011;10062;51.052;13.756;2023-11-19T03:52:18;6.60;;;2.20;;
19804;SDS011;10062;51.052;13.756;2023-11-19T03:54:50;3.50;;;1.93;;
19804;SDS011;10062;51.052;13.756;2023-11-19T03:57:22;5.73;;;2.50;;
19804;SDS011;10062;51.052;13.756;2023-11-19T03:59:55;3.10;;;1.90;;
19804;SDS011;10062;51.052;13.756;2023-11-19T04:02:28;2.83;;;1.87;;
19804;SDS011;10062;51.052;13.756;2023-11-19T04:05:00;4.23;;;2.30;;
19804;SDS011;10062;51.052;13.756;2023-11-19T04:07:33;4.57;;;2.30;;
19804;SDS011;10062;51.052;13.756;2023-11-19T04:10:05;5.73;;;2.90;;
19804;SDS011;10062;51.052;13.756;2023-11-19T04:12:37;4.53;;;2.17;;
19804;SDS011;10062;51.052;13.756;2023-11-19T04:15:12;6.50;;;2.87;;
19804;SDS011;10062;51.052;13.756;2023-11-19T04:17:44;4.63;;;2.70;;
19804;SDS011;10062;51.052;13.756;2023-11-19T04:20:16;6.50;;;2.83;;
19804;SDS011;10062;51.052;13.756;2023-11-19T04:22:49;5.73;;;3.40;;
19804;SDS011;10062;51.052;13.756;2023-11-19T04:25:21;6.17;;;2.87;;
19804;SDS011;10062;51.052;13.756;2023-11-19T04:27:54;5.40;;;3.17;;
19804;SDS011;10062;51.052;13.756;2023-11-19T04:30:27;5.97;;;3.77;;
19804;SDS011;10062;51.052;13.756;2023-11-19T04:33:01;5.37;;;3.10;;
19804;SDS011;10062;51.052;13.756;2023-11-19T04:35:33;7.43;;;4.00;;
19804;SDS011;10062;51.052;13.756;2023-11-19T04:38:05;5.20;;;3.33;;
19804;SDS011;10062;51.052;13.756;2023-11-19T04:40:37;6.57;;;3.23;;
19804;SDS011;10062;51.052;13.756;2023-11-19T04:43:09;8.47;;;4.27;;
19804;SDS011;10062;51.052;13.756;2023-11-19T04:45:42;5.60;;;3.37;;
19804;SDS011;10062;51.052;13.756;2023-11-19T04:48:14;8.07;;;3.57;;
19804;SDS011;10062;51.052;13.756;2023-11-19T04:50:46;6.03;;;2.97;;
19804;SDS011;10062;51.052;13.756;2023-11-19T04:53:17;6.13;;;3.47;;
19804;SDS011;10062;51.052;13.756;2023-11-19T04:55:50;5.97;;;3.70;;
19804;SDS011;10062;51.052;13.756;2023-11-19T04:58:22;6.03;;;3.63;;
19804;SDS011;10062;51.052;13.756;2023-11-19T05:00:55;5.53;;;2.93;;
19804;SDS011;10062;51.052;13.756;2023-11-19T05:03:27;6.60;;;3.90;;
19804;SDS011;10062;51.052;13.756;2023-11-19T05:05:58;6.57;;;3.67;;
19804;SDS011;10062;51.052;13.756;2023-11-19T05:08:30;3.07;;;1.83;;
19804;SDS011;10062;51.052;13.756;2023-11-19T05:11:02;7.20;;;4.07;;
19804;SDS011;10062;51.052;13.756;2023-11-19T05:13:36;7.43;;;3.40;;
19804;SDS011;10062;51.052;13.756;2023-11-19T05:16:09;3.10;;;1.93;;
19804;SDS011;10062;51.052;13.756;2023-11-19T05:18:40;5.13;;;2.70;;
19804;SDS011;10062;51.052;13.756;2023-11-19T05:21:12;8.80;;;4.07;;
19804;SDS011;10062;51.052;13.756;2023-11-19T05:23:44;6.83;;;3.83;;
19804;SDS011;10062;51.052;13.756;2023-11-19T05:26:17;7.87;;;3.03;;
19804;SDS011;10062;51.052;13.756;2023-11-19T05:28:50;6.70;;;3.87;;
19804;SDS011;10062;51.052;13.756;2023-11-19T05:31:23;6.07;;;3.53;;
19804;SDS011;10062;51.052;13.756;2023-11-19T05:33:55;6.37;;;3.67;;
19804;SDS011;10062;51.052;13.756;2023-11-19T05:36:27;7.20;;;3.53;;
19804;SDS011;10062;51.052;13.756;2023-11-19T05:38:59;3.93;;;2.23;;
19804;SDS011;10062;51.052;13.756;2023-11-19T05:41:30;5.13;;;2.90;;
19804;SDS011;10062;51.052;13.756;2023-11-19T05:44:02;5.00;;;2.53;;
19804;SDS011;10062;51.052;13.756;2023-11-19T05:46:35;7.57;;;4.47;;
19804;SDS011;10062;51.052;13.756;2023-11-19T05:49:10;8.37;;;4.87;;
19804;SDS011;10062;51.052;13.756;2023-11-19T05:51:43;8.83;;;4.10;;
19804;SDS011;10062;51.052;13.756;2023-11-19T05:54:16;3.60;;;2.50;;
19804;SDS011;10062;51.052;13.756;2023-11-19T05:56:49;5.83;;;3.50;;
19804;SDS011;10062;51.052;13.756;2023-11-19T05:59:24;6.30;;;4.27;;
19804;SDS011;10062;51.052;13.756;2023-11-19T06:01:58;8.07;;;5.17;;
19804;SDS011;10062;51.052;13.756;2023-11-19T06:04:30;10.70;;;5.63;;
19804;SDS011;10062;51.052;13.756;2023-11-19T06:07:02;8.30;;;5.63;;
19804;SDS011;10062;51.052;13.756;2023-11-19T06:09:33;9.97;;;4.93;;
19804;SDS011;10062;51.052;13.756;2023-11-19T06:12:05;9.23;;;5.33;;
19804;SDS011;10062;51.052;13.756;2023-11-19T06:14:38;7.90;;;5.30;;
19804;SDS011;10062;51.052;13.756;2023-11-19T06:17:11;13.07;;;5.30;;
19804;SDS011;10062;51.052;13.756;2023-11-19T06:19:42;8.40;;;4.57;;
19804;SDS011;10062;51.052;13.756;2023-11-19T06:22:15;10.60;;;6.00;;
19804;SDS011;10062;51.052;13.756;2023-11-19T06:24:46;7.10;;;4.43;;
19804;SDS011;10062;51.052;13.756;2023-11-19T06:27:18;8.23;;;4.47;;
19804;SDS011;10062;51.052;13.756;2023-11-19T06:29:50;7.27;;;3.30;;
19804;SDS011;10062;51.052;13.756;2023-11-19T06:32:23;8.70;;;4.80;;
19804;SDS011;10062;51.052;13.756;2023-11-19T06:34:55;7.87;;;5.03;;
19804;SDS011;10062;51.052;13.756;2023-11-19T06:37:28;6.83;;;3.53;;
19804;SDS011;10062;51.052;13.756;2023-11-19T06:39:59;5.87;;;4.10;;
19804;SDS011;10062;51.052;13.756;2023-11-19T06:42:31;6.83;;;3.70;;
19804;SDS011;10062;51.052;13.756;2023-11-19T06:45:03;6.77;;;3.97;;
19804;SDS011;10062;51.052;13.756;2023-11-19T06:47:37;8.57;;;4.63;;
19804;SDS011;10062;51.052;13.756;2023-11-19T06:50:09;10.70;;;4.50;;
19804;SDS011;10062;51.052;13.756;2023-11-19T06:52:42;7.27;;;4.50;;
19804;SDS011;10062;51.052;13.756;2023-11-19T06:55:15;8.00;;;4.10;;
19804;SDS011;10062;51.052;13.756;2023-11-19T06:57:47;7.67;;;4.30;;
19804;SDS011;10062;51.052;13.756;2023-11-19T07:00:19;6.90;;;3.70;;
19804;SDS011;10062;51.052;13.756;2023-11-19T07:02:52;5.40;;;3.40;;
19804;SDS011;10062;51.052;13.756;2023-11-19T07:05:24;6.67;;;3.57;;
19804;SDS011;10062;51.052;13.756;2023-11-19T07:07:56;5.60;;;3.40;;
19804;SDS011;10062;51.052;13.756;2023-11-19T07:10:27;3.87;;;2.13;;
19804;SDS011;10062;51.052;13.756;2023-11-19T07:13:00;7.57;;;3.03;;
19804;SDS011;10062;51.052;13.756;2023-11-19T07:15:35;6.13;;;2.97;;
19804;SDS011;10062;51.052;13.756;2023-11-19T07:18:09;5.93;;;3.00;;
19804;SDS011;10062;51.052;13.756;2023-11-19T07:20:41;5.70;;;2.83;;
19804;SDS011;10062;51.052;13.756;2023-11-19T07:23:13;5.37;;;3.07;;
19804;SDS011;10062;51.052;13.756;2023-11-19T07:25:46;4.07;;;2.20;;
19804;SDS011;10062;51.052;13.756;2023-11-19T07:28:20;4.77;;;2.57;;
19804;SDS011;10062;51.052;13.756;2023-11-19T07:30:52;5.20;;;2.97;;
19804;SDS011;10062;51.052;13.756;2023-11-19T07:33:27;5.83;;;2.73;;
19804;SDS011;10062;51.052;13.756;2023-11-19T07:35:59;4.97;;;3.03;;
19804;SDS011;10062;51.052;13.756;2023-11-19T07:38:31;6.30;;;3.50;;
19804;SDS011;10062;51.052;13.756;2023-11-19T07:41:03;6.77;;;3.00;;
19804;SDS011;10062;51.052;13.756;2023-11-19T07:43:35;6.20;;;2.87;;
19804;SDS011;10062;51.052;13.756;2023-11-19T07:46:10;5.67;;;3.40;;
19804;SDS011;10062;51.052;13.756;2023-11-19T07:48:44;14.47;;;3.37;;
19804;SDS011;10062;51.052;13.756;2023-11-19T07:51:17;6.63;;;3.73;;
19804;SDS011;10062;51.052;13.756;2023-11-19T07:53:48;4.27;;;2.63;;
19804;SDS011;10062;51.052;13.756;2023-11-19T07:56:20;4.47;;;2.80;;
19804;SDS011;10062;51.052;13.756;2023-11-19T07:58:52;3.90;;;2.40;;
19804;SDS011;10062;51.052;13.756;2023-11-19T08:01:24;4.00;;;2.50;;
19804;SDS011;10062;51.052;13.756;2023-11-19T08:03:57;8.37;;;3.03;;
19804;SDS011;10062;51.052;13.756;2023-11-19T08:06:29;5.17;;;2.67;;
19804;SDS011;10062;51.052;13.756;2023-11-19T08:09:01;4.33;;;2.80;;
19804;SDS011;10062;51.052;13.756;2023-11-19T08:11:33;4.43;;;2.90;;
19804;SDS011;10062;51.052;13.756;2023-11-19T08:14:05;5.50;;;2.43;;
19804;SDS011;10062;51.052;13.756;2023-11-19T08:16:36;5.07;;;2.80;;
19804;SDS011;10062;51.052;13.756;2023-11-19T08:19:11;9.73;;;4.97;;
19804;SDS011;10062;51.052;13.756;2023-11-19T08:21:43;5.70;;;3.00;;
19804;SDS011;10062;51.052;13.756;2023-11-19T08:24:15;5.37;;;2.63;;
19804;SDS011;10062;51.052;13.756;2023-11-19T08:26:47;5.10;;;2.70;;
19804;SDS011;10062;51.052;13.756;2023-11-19T08:29:19;6.07;;;2.80;;
19804;SDS011;10062;51.052;13.756;2023-11-19T08:31:51;5.23;;;3.00;;
19804;SDS011;10062;51.052;13.756;2023-11-19T08:34:24;5.77;;;3.17;;
19804;SDS011;10062;51.052;13.756;2023-11-19T08:36:56;4.37;;;2.67;;
19804;SDS011;10062;51.052;13.756;2023-11-19T08:39:28;5.13;;;2.80;;
19804;SDS011;10062;51.052;13.756;2023-11-19T08:42:00;6.20;;;3.37;;
19804;SDS011;10062;51.052;13.756;2023-11-19T08:44:32;5.57;;;3.13;;
19804;SDS011;10062;51.052;13.756;2023-11-19T08:47:04;6.50;;;3.37;;
19804;SDS011;10062;51.052;13.756;2023-11-19T08:49:37;4.90;;;3.10;;
19804;SDS011;10062;51.052;13.756;2023-11-19T08:52:09;5.63;;;2.93;;
19804;SDS011;10062;51.052;13.756;2023-11-19T08:54:42;4.33;;;2.63;;
19804;SDS011;10062;51.052;13.756;2023-11-19T08:57:14;5.00;;;2.80;;
19804;SDS011;10062;51.052;13.756;2023-11-19T08:59:45;5.53;;;2.90;;
19804;SDS011;10062;51.052;13.756;2023-11-19T09:02:17;9.20;;;4.67;;
19804;SDS011;10062;51.052;13.756;2023-11-19T09:04:51;12.13;;;5.87;;
19804;SDS011;10062;51.052;13.756;2023-11-19T09:07:22;8.77;;;3.07;;
19804;SDS011;10062;51.052;13.756;2023-11-19T09:09:54;8.00;;;4.40;;
19804;SDS011;10062;51.052;13.756;2023-11-19T09:12:26;5.10;;;2.90;;
19804;SDS011;10062;51.052;13.756;2023-11-19T09:14:58;6.00;;;3.73;;
19804;SDS011;10062;51.052;13.756;2023-11-19T09:17:29;6.20;;;2.70;;
19804;SDS011;10062;51.052;13.756;2023-11-19T09:20:03;5.60;;;3.27;;
19804;SDS011;10062;51.052;13.756;2023-11-19T09:22:35;6.17;;;2.90;;
19804;SDS011;10062;51.052;13.756;2023-11-19T09:25:07;6.00;;;3.10;;
19804;SDS011;10062;51.052;13.756;2023-11-19T09:27:39;7.27;;;3.67;;
19804;SDS011;10062;51.052;13.756;2023-11-19T09:30:11;5.20;;;3.20;;
19804;SDS011;10062;51.052;13.756;2023-11-19T09:32:43;6.47;;;3.53;;
19804;SDS011;10062;51.052;13.756;2023-11-19T09:35:16;6.07;;;2.90;;
19804;SDS011;10062;51.052;13.756;2023-11-19T09:37:48;9.70;;;3.00;;
19804;SDS011;10062;51.052;13.756;2023-11-19T09:40:20;3.37;;;1.80;;
19804;SDS011;10062;51.052;13.756;2023-11-19T09:42:51;7.60;;;2.47;;
19804;SDS011;10062;51.052;13.756;2023-11-19T09:45:23;4.40;;;2.07;;
19804;SDS011;10062;51.052;13.756;2023-11-19T09:47:59;7.30;;;2.03;;
19804;SDS011;10062;51.052;13.756;2023-11-19T09:50:33;4.40;;;1.63;;
19804;SDS011;10062;51.052;13.756;2023-11-19T09:53:05;2.90;;;1.20;;
19804;SDS011;10062;51.052;13.756;2023-11-19T09:55:37;5.70;;;1.93;;
19804;SDS011;10062;51.052;13.756;2023-11-19T09:58:08;8.00;;;1.60;;
19804;SDS011;10062;51.052;13.756;2023-11-19T10:00:43;2.83;;;1.10;;
19804;SDS011;10062;51.052;13.756;2023-11-19T10:03:14;2.30;;;0.90;;
19804;SDS011;10062;51.052;13.756;2023-11-19T10:05:48;3.53;;;1.37;;
19804;SDS011;10062;51.052;13.756;2023-11-19T10:08:20;6.37;;;1.97;;
19804;SDS011;10062;51.052;13.756;2023-11-19T10:10:51;3.20;;;1.47;;
19804;SDS011;10062;51.052;13.756;2023-11-19T10:13:25;2.83;;;1.10;;
19804;SDS011;10062;51.052;13.756;2023-11-19T10:15:57;5.10;;;1.20;;
19804;SDS011;10062;51.052;13.756;2023-11-19T10:18:29;3.83;;;1.10;;
19804;SDS011;10062;51.052;13.756;2023-11-19T10:21:02;4.03;;;1.10;;
19804;SDS011;10062;51.052;13.756;2023-11-19T10:23:47;2.50;;;1.13;;
19804;SDS011;10062;51.052;13.756;2023-11-19T10:26:20;3.23;;;1.03;;
19804;SDS011;10062;51.052;13.756;2023-11-19T10:28:52;2.23;;;1.10;;
19804;SDS011;10062;51.052;13.756;2023-11-19T10:31:24;4.03;;;1.40;;
19804;SDS011;10062;51.052;13.756;2023-11-19T10:33:56;5.63;;;1.40;;
19804;SDS011;10062;51.052;13.756;2023-11-19T10:36:38;2.67;;;1.23;;
19804;SDS011;10062;51.052;13.756;2023-11-19T10:39:12;3.33;;;1.20;;
19804;SDS011;10062;51.052;13.756;2023-11-19T10:41:44;1.80;;;0.90;;
19804;SDS011;10062;51.052;13.756;2023-11-19T10:44:30;2.00;;;0.83;;
19804;SDS011;10062;51.052;13.756;2023-11-19T10:47:05;2.77;;;0.93;;
19804;SDS011;10062;51.052;13.756;2023-11-19T10:49:40;2.90;;;1.20;;
19804;SDS011;10062;51.052;13.756;2023-11-19T10:52:14;2.23;;;1.13;;
19804;SDS011;10062;51.052;13.756;2023-11-19T10:54:50;4.17;;;0.97;;
19804;SDS011;10062;51.052;13.756;2023-11-19T10:57:22;1.27;;;0.83;;
19804;SDS011;10062;51.052;13.756;2023-11-19T11:00:03;3.87;;;1.27;;
19804;SDS011;10062;51.052;13.756;2023-11-19T11:02:41;2.13;;;0.90;;
19804;SDS011;10062;51.052;13.756;2023-11-19T11:05:16;2.83;;;0.90;;
19804;SDS011;10062;51.052;13.756;2023-11-19T11:07:51;17.20;;;8.40;;
19804;SDS011;10062;51.052;13.756;2023-11-19T11:10:26;5.13;;;1.67;;
19804;SDS011;10062;51.052;13.756;2023-11-19T11:12:59;3.10;;;1.30;;
19804;SDS011;10062;51.052;13.756;2023-11-19T11:15:33;2.23;;;1.30;;
19804;SDS011;10062;51.052;13.756;2023-11-19T11:18:05;3.50;;;1.40;;
19804;SDS011;10062;51.052;13.756;2023-11-19T11:20:40;1.53;;;0.70;;
19804;SDS011;10062;51.052;13.756;2023-11-19T11:23:22;3.30;;;1.10;;
19804;SDS011;10062;51.052;13.756;2023-11-19T11:26:20;1.40;;;0.80;;
19804;SDS011;10062;51.052;13.756;2023-11-19T11:29:05;4.53;;;1.80;;
19804;SDS011;10062;51.052;13.756;2023-11-19T11:31:43;7.00;;;1.03;;
19804;SDS011;10062;51.052;13.756;2023-11-19T11:34:29;2.47;;;1.27;;
19804;SDS011;10062;51.052;13.756;2023-11-19T11:37:16;1.53;;;0.80;;
19804;SDS011;10062;51.052;13.756;2023-11-19T11:39:56;2.43;;;0.93;;
19804;SDS011;10062;51.052;13.756;2023-11-19T11:42:33;2.60;;;1.20;;
19804;SDS011;10062;51.052;13.756;2023-11-19T11:45:05;5.57;;;1.70;;
19804;SDS011;10062;51.052;13.756;2023-11-19T11:48:04;5.97;;;1.50;;
19804;SDS011;10062;51.052;13.756;2023-11-19T11:50:47;3.60;;;1.30;;
19804;SDS011;10062;51.052;13.756;2023-11-19T11:53:24;5.07;;;1.87;;
19804;SDS011;10062;51.052;13.756;2023-11-19T11:55:58;5.37;;;1.80;;
19804;SDS011;10062;51.052;13.756;2023-11-19T11:58:31;5.40;;;1.50;;
19804;SDS011;10062;51.052;13.756;2023-11-19T12:01:05;7.97;;;1.60;;
19804;SDS011;10062;51.052;13.756;2023-11-19T12:03:37;4.80;;;1.07;;
19804;SDS011;10062;51.052;13.756;2023-11-19T12:06:09;4.20;;;1.50;;
19804;SDS011;10062;51.052;13.756;2023-11-19T12:08:42;5.07;;;1.47;;
19804;SDS011;10062;51.052;13.756;2023-11-19T12:11:16;4.17;;;1.60;;
19804;SDS011;10062;51.052;13.756;2023-11-19T12:13:55;4.17;;;1.60;;
19804;SDS011;10062;51.052;13.756;2023-11-19T12:16:29;6.13;;;1.70;;
19804;SDS011;10062;51.052;13.756;2023-11-19T12:19:06;8.40;;;2.07;;
19804;SDS011;10062;51.052;13.756;2023-11-19T12:21:39;6.20;;;1.17;;
19804;SDS011;10062;51.052;13.756;2023-11-19T12:24:10;4.97;;;1.60;;
19804;SDS011;10062;51.052;13.756;2023-11-19T12:26:44;4.77;;;1.47;;
19804;SDS011;10062;51.052;13.756;2023-11-19T12:29:17;3.93;;;1.70;;
19804;SDS011;10062;51.052;13.756;2023-11-19T12:31:53;7.10;;;2.00;;
19804;SDS011;10062;51.052;13.756;2023-11-19T12:34:25;5.43;;;1.47;;
19804;SDS011;10062;51.052;13.756;2023-11-19T12:36:57;8.40;;;1.50;;
19804;SDS011;10062;51.052;13.756;2023-11-19T12:39:30;10.93;;;2.83;;
19804;SDS011;10062;51.052;13.756;2023-11-19T12:42:04;5.70;;;1.67;;
19804;SDS011;10062;51.052;13.756;2023-11-19T12:44:36;5.10;;;1.67;;
19804;SDS011;10062;51.052;13.756;2023-11-19T12:47:07;6.10;;;1.97;;
19804;SDS011;10062;51.052;13.756;2023-11-19T12:49:41;6.07;;;1.77;;
19804;SDS011;10062;51.052;13.756;2023-11-19T12:52:13;10.63;;;1.67;;
19804;SDS011;10062;51.052;13.756;2023-11-19T12:54:44;8.27;;;1.73;;
19804;SDS011;10062;51.052;13.756;2023-11-19T12:57:18;8.27;;;1.70;;
19804;SDS011;10062;51.052;13.756;2023-11-19T12:59:56;6.33;;;1.77;;
19804;SDS011;10062;51.052;13.756;2023-11-19T13:05:24;8.10;;;1.63;;
19804;SDS011;10062;51.052;13.756;2023-11-19T13:07:58;8.07;;;1.80;;
19804;SDS011;10062;51.052;13.756;2023-11-19T13:10:31;6.10;;;2.00;;
19804;SDS011;10062;51.052;13.756;2023-11-19T13:13:05;9.87;;;2.00;;
19804;SDS011;10062;51.052;13.756;2023-11-19T13:15:38;7.10;;;1.57;;
19804;SDS011;10062;51.052;13.756;2023-11-19T13:18:10;10.23;;;2.37;;
19804;SDS011;10062;51.052;13.756;2023-11-19T13:20:42;8.87;;;1.53;;
19804;SDS011;10062;51.052;13.756;2023-11-19T13:23:14;10.53;;;3.50;;
19804;SDS011;10062;51.052;13.756;2023-11-19T13:25:46;8.53;;;2.73;;
19804;SDS011;10062;51.052;13.756;2023-11-19T13:28:19;6.77;;;2.10;;
19804;SDS011;10062;51.052;13.756;2023-11-19T13:30:50;12.97;;;4.10;;
19804;SDS011;10062;51.052;13.756;2023-11-19T13:33:23;7.13;;;1.80;;
19804;SDS011;10062;51.052;13.756;2023-11-19T13:35:56;14.10;;;2.60;;
19804;SDS011;10062;51.052;13.756;2023-11-19T13:38:28;12.87;;;2.37;;
19804;SDS011;10062;51.052;13.756;2023-11-19T13:41:00;8.63;;;2.37;;
19804;SDS011;10062;51.052;13.756;2023-11-19T13:43:33;9.67;;;3.10;;
19804;SDS011;10062;51.052;13.756;2023-11-19T13:46:05;12.13;;;2.60;;
19804;SDS011;10062;51.052;13.756;2023-11-19T13:48:39;11.33;;;2.50;;
19804;SDS011;10062;51.052;13.756;2023-11-19T13:51:11;9.70;;;2.47;;
19804;SDS011;10062;51.052;13.756;2023-11-19T13:53:43;9.50;;;2.43;;
19804;SDS011;10062;51.052;13.756;2023-11-19T13:56:14;13.30;;;3.03;;
19804;SDS011;10062;51.052;13.756;2023-11-19T13:58:49;9.20;;;2.30;;
19804;SDS011;10062;51.052;13.756;2023-11-19T14:01:20;10.20;;;2.20;;
19804;SDS011;10062;51.052;13.756;2023-11-19T14:03:52;9.33;;;2.50;;
19804;SDS011;10062;51.052;13.756;2023-11-19T14:06:24;9.23;;;2.00;;
19804;SDS011;10062;51.052;13.756;2023-11-19T14:08:56;9.03;;;2.07;;
19804;SDS011;10062;51.052;13.756;2023-11-19T14:11:27;5.37;;;1.87;;
19804;SDS011;10062;51.052;13.756;2023-11-19T14:14:00;13.60;;;3.77;;
19804;SDS011;10062;51.052;13.756;2023-11-19T14:16:32;7.00;;;2.00;;
19804;SDS011;10062;51.052;13.756;2023-11-19T14:19:04;9.87;;;2.37;;
19804;SDS011;10062;51.052;13.756;2023-11-19T14:21:36;8.50;;;1.97;;
19804;SDS011;10062;51.052;13.756;2023-11-19T14:24:08;5.90;;;1.60;;
19804;SDS011;10062;51.052;13.756;2023-11-19T14:26:39;9.60;;;2.70;;
19804;SDS011;10062;51.052;13.756;2023-11-19T14:29:13;11.03;;;2.23;;
19804;SDS011;10062;51.052;13.756;2023-11-19T14:31:44;11.97;;;2.67;;
19804;SDS011;10062;51.052;13.756;2023-11-19T14:34:16;12.30;;;2.80;;
19804;SDS011;10062;51.052;13.756;2023-11-19T14:36:49;14.00;;;2.30;;
19804;SDS011;10062;51.052;13.756;2023-11-19T14:39:21;7.23;;;2.10;;
19804;SDS011;10062;51.052;13.756;2023-11-19T14:41:52;10.97;;;2.33;;
19804;SDS011;10062;51.052;13.756;2023-11-19T14:44:29;8.43;;;2.07;;
19804;SDS011;10062;51.052;13.756;2023-11-19T14:47:01;11.57;;;3.13;;
19804;SDS011;10062;51.052;13.756;2023-11-19T14:49:34;12.33;;;2.13;;
19804;SDS011;10062;51.052;13.756;2023-11-19T14:52:07;9.83;;;2.50;;
19804;SDS011;10062;51.052;13.756;2023-11-19T14:54:38;11.80;;;2.40;;
19804;SDS011;10062;51.052;13.756;2023-11-19T14:57:10;6.57;;;2.00;;
19804;SDS011;10062;51.052;13.756;2023-11-19T14:59:44;11.73;;;2.53;;
19804;SDS011;10062;51.052;13.756;2023-11-19T15:02:16;8.87;;;2.30;;
19804;SDS011;10062;51.052;13.756;2023-11-19T15:04:49;8.20;;;2.23;;
19804;SDS011;10062;51.052;13.756;2023-11-19T15:07:20;11.90;;;2.37;;